Lamb, Illinois
Current Conditions -  °F | °C
As of 7:15 AM on Thursday 18 Dec 2014 (Local Time) from K5M9 Reporting Station
Overcast Overcast  
Wind Chill: 25°   Ceiling: 3800
Heat Index: 30°   Visibility: 10mi
Dew Point: 27°   Wind: 5mph
Humidity: 88%   Direction: 40°NE
Pressure: 30.26"   Gusts: NA
Location:  37.5407°N, 88.2414°W
Report Text: K5M9 181315Z AUTO 04004KT 10SM OVC038 M01/M03 A3026 RMK AO2 T10101027
Loading
Personal Weather Stations






























Interactive Weather Map New forecast layout! Learn more

10-Day Weather Forecast

Advertisements
Track Severe Weather on mobile